createdAt,value
2023-03-21T00:00:23.897Z,11.25
2023-03-21T00:02:50.409Z,12.35
2023-03-21T00:05:17.122Z,11.50
2023-03-21T00:07:43.703Z,11.95
2023-03-21T00:10:16.711Z,10.10
2023-03-21T00:12:44.854Z,10.85
2023-03-21T00:15:12.804Z,10.30
2023-03-21T00:17:39.660Z,12.70
2023-03-21T00:20:15.110Z,13.88
2023-03-21T00:22:42.029Z,10.13
2023-03-21T00:25:10.644Z,12.75
2023-03-21T00:27:56.807Z,14.80
2023-03-21T00:30:24.173Z,9.55
2023-03-21T00:32:56.436Z,9.30
2023-03-21T00:35:54.007Z,10.05
2023-03-21T00:38:11.160Z,10.57
2023-03-21T00:40:43.761Z,12.65
2023-03-21T00:43:19.445Z,7.63
2023-03-21T00:45:46.608Z,9.68
2023-03-21T00:48:13.766Z,7.83
2023-03-21T00:50:40.906Z,7.72
2023-03-21T00:53:07.551Z,11.43
2023-03-21T00:55:34.386Z,10.93
2023-03-21T00:58:02.544Z,10.48
2023-03-21T01:00:29.821Z,8.27
2023-03-21T01:03:02.873Z,7.50
2023-03-21T01:05:52.681Z,10.70
2023-03-21T01:08:28.001Z,11.60
2023-03-21T01:10:56.742Z,8.68
2023-03-21T01:13:25.529Z,11.77
2023-03-21T01:15:55.777Z,13.45
2023-03-21T01:18:26.920Z,14.32
2023-03-21T01:20:54.787Z,12.18
2023-03-21T01:23:21.225Z,13.43
2023-03-21T01:25:48.843Z,11.43
2023-03-21T01:28:16.170Z,17.15
2023-03-21T01:30:50.290Z,11.25
2023-03-21T01:33:18.046Z,12.57
2023-03-21T01:35:50.439Z,11.82
2023-03-21T01:38:20.456Z,15.17
2023-03-21T01:40:48.690Z,13.40
2023-03-21T01:43:24.792Z,15.88
2023-03-21T01:46:21.225Z,14.57
2023-03-21T01:49:02.004Z,20.33
2023-03-21T01:51:31.077Z,19.63
2023-03-21T01:53:57.829Z,16.77
2023-03-21T01:56:26.175Z,16.70
2023-03-21T01:58:55.972Z,18.48
2023-03-21T02:01:23.273Z,15.98
2023-03-21T02:03:51.671Z,19.10
2023-03-21T02:06:31.711Z,24.10
2023-03-21T02:09:05.001Z,22.95
2023-03-21T02:11:32.218Z,21.10
2023-03-21T02:14:06.431Z,18.58
2023-03-21T02:16:40.170Z,23.23
2023-03-21T02:19:31.927Z,22.00
2023-03-21T02:22:19.376Z,21.92
2023-03-21T02:25:13.362Z,22.27
2023-03-21T02:27:55.832Z,21.65
2023-03-21T02:30:59.642Z,22.17
2023-03-21T02:33:37.643Z,18.25
2023-03-21T02:36:14.474Z,23.15
2023-03-21T02:38:52.954Z,18.92
2023-03-21T02:41:29.788Z,20.33
2023-03-21T02:44:20.126Z,21.73
2023-03-21T02:47:06.358Z,22.10
2023-03-21T02:49:42.962Z,20.58
2023-03-21T02:52:28.372Z,19.70
2023-03-21T02:55:04.913Z,21.95
2023-03-21T02:57:42.150Z,24.97
2023-03-21T03:00:16.576Z,24.48
2023-03-21T03:02:43.622Z,28.27
2023-03-21T03:05:21.182Z,24.23
2023-03-21T03:07:51.298Z,23.98
2023-03-21T03:10:32.363Z,22.40
2023-03-21T03:13:12.533Z,21.05
2023-03-21T03:16:13.596Z,22.40
2023-03-21T03:19:01.198Z,16.15
2023-03-21T03:21:42.242Z,16.45
2023-03-21T03:24:20.507Z,19.20
2023-03-21T03:27:06.800Z,19.90
2023-03-21T03:29:37.138Z,20.65
2023-03-21T03:32:18.836Z,19.40
2023-03-21T03:34:51.497Z,19.40
2023-03-21T03:37:22.073Z,20.10
2023-03-21T03:40:08.165Z,18.02
2023-03-21T03:42:51.987Z,22.05
2023-03-21T03:45:21.993Z,19.05
2023-03-21T03:48:02.622Z,22.95
2023-03-21T03:51:01.488Z,17.93
2023-03-21T03:53:36.917Z,20.55
2023-03-21T03:56:07.135Z,19.90
2023-03-21T03:58:44.827Z,17.20
2023-03-21T04:01:12.407Z,21.00
2023-03-21T04:03:49.028Z,18.20
2023-03-21T04:06:18.586Z,22.52
2023-03-21T04:08:45.113Z,21.73
2023-03-21T04:11:15.597Z,19.77
2023-03-21T04:13:42.390Z,19.15
2023-03-21T04:16:11.539Z,17.83
2023-03-21T04:18:39.205Z,18.42
2023-03-21T04:21:13.005Z,17.20
2023-03-21T04:23:40.837Z,20.08
2023-03-21T04:26:08.066Z,18.73
2023-03-21T04:28:37.057Z,19.93
2023-03-21T04:31:22.691Z,21.95
2023-03-21T04:33:51.842Z,26.92
2023-03-21T04:36:38.893Z,22.27
2023-03-21T04:39:12.192Z,17.85
2023-03-21T04:41:44.031Z,28.20
2023-03-21T04:44:11.864Z,22.45
2023-03-21T04:46:38.903Z,19.42
2023-03-21T04:49:06.966Z,21.58
2023-03-21T04:51:34.155Z,22.85
2023-03-21T04:54:00.695Z,26.93
2023-03-21T04:56:32.660Z,23.70
2023-03-21T04:59:00.942Z,24.13
2023-03-21T05:01:30.707Z,25.13
2023-03-21T05:03:59.140Z,18.40
2023-03-21T05:06:26.470Z,18.30
2023-03-21T05:08:53.064Z,22.90
2023-03-21T05:11:19.561Z,22.25
2023-03-21T05:13:46.332Z,18.52
2023-03-21T05:16:12.830Z,14.25
2023-03-21T05:18:39.353Z,19.57
2023-03-21T05:21:10.136Z,19.33
2023-03-21T05:23:41.993Z,17.20
2023-03-21T05:26:09.978Z,16.67
2023-03-21T05:28:36.762Z,16.30
2023-03-21T05:31:04.417Z,16.40
2023-03-21T05:33:31.141Z,16.92
2023-03-21T05:35:58.642Z,17.80
2023-03-21T05:38:25.664Z,12.95
2023-03-21T05:40:53.760Z,14.32
2023-03-21T05:43:20.346Z,21.40
2023-03-21T05:45:48.198Z,20.75
2023-03-21T05:48:15.359Z,23.42
2023-03-21T05:50:42.174Z,12.70
2023-03-21T05:53:09.174Z,17.55
2023-03-21T05:55:36.490Z,11.67
2023-03-21T05:58:03.446Z,15.20
2023-03-21T06:00:30.752Z,16.38
2023-03-21T06:02:57.307Z,15.77
2023-03-21T06:05:23.853Z,13.55
2023-03-21T06:07:50.478Z,13.20
2023-03-21T06:10:17.075Z,18.40
2023-03-21T06:12:43.963Z,11.82
2023-03-21T06:15:11.162Z,16.30
2023-03-21T06:17:37.663Z,13.98
2023-03-21T06:20:06.859Z,16.00
2023-03-21T06:22:34.682Z,14.20
2023-03-21T06:25:01.843Z,16.73
2023-03-21T06:27:28.349Z,15.23
2023-03-21T06:29:54.819Z,11.95
2023-03-21T06:32:21.346Z,11.97
2023-03-21T06:34:47.831Z,13.07
2023-03-21T06:37:14.316Z,11.20
2023-03-21T06:39:41.251Z,13.95
2023-03-21T06:42:07.785Z,14.93
2023-03-21T06:44:34.347Z,15.93
2023-03-21T06:47:01.575Z,11.68
2023-03-21T06:49:28.304Z,15.40
2023-03-21T06:51:54.850Z,19.95
2023-03-21T06:54:21.444Z,14.75
2023-03-21T06:56:47.899Z,11.23
2023-03-21T06:59:14.649Z,14.32
2023-03-21T07:01:42.900Z,13.25
2023-03-21T07:04:10.198Z,12.25
2023-03-21T07:06:37.182Z,15.85
2023-03-21T07:09:05.483Z,9.57
2023-03-21T07:11:32.554Z,10.25
2023-03-21T07:13:59.046Z,11.43
2023-03-21T07:16:25.872Z,8.60
2023-03-21T07:18:52.396Z,12.05
2023-03-21T07:21:18.880Z,11.88
2023-03-21T07:23:45.359Z,13.27
2023-03-21T07:26:11.936Z,12.30
2023-03-21T07:28:38.427Z,14.38
2023-03-21T07:31:06.598Z,14.45
2023-03-21T07:33:33.471Z,12.07
2023-03-21T07:36:00.769Z,9.77
2023-03-21T07:38:27.652Z,11.00
2023-03-21T07:40:54.156Z,8.23
2023-03-21T07:43:20.696Z,13.52
2023-03-21T07:45:47.576Z,11.50
2023-03-21T07:48:14.949Z,21.70
2023-03-21T07:50:41.601Z,17.73
2023-03-21T07:53:08.072Z,13.65
2023-03-21T07:55:35.119Z,11.13
2023-03-21T07:58:03.444Z,9.38
2023-03-21T08:00:30.417Z,14.65
2023-03-21T08:02:59.032Z,13.98
2023-03-21T08:05:37.313Z,18.05
2023-03-21T08:08:05.190Z,12.07
2023-03-21T08:10:32.877Z,12.98
2023-03-21T08:12:59.337Z,11.68
2023-03-21T08:15:25.994Z,10.65
2023-03-21T08:17:52.624Z,7.82
2023-03-21T08:20:21.759Z,11.65
2023-03-21T08:22:49.321Z,10.03
2023-03-21T08:25:17.972Z,10.85
2023-03-21T08:27:45.658Z,11.82
2023-03-21T08:30:14.393Z,15.35
2023-03-21T08:32:42.145Z,9.77
2023-03-21T08:35:40.929Z,13.13
2023-03-21T08:50:10.671Z,9.73
2023-03-21T08:52:37.221Z,6.95
2023-03-21T08:55:04.210Z,11.95
2023-03-21T08:57:30.834Z,6.57
2023-03-21T08:59:57.346Z,8.27
2023-03-21T09:02:23.830Z,13.52
2023-03-21T09:04:54.700Z,7.35
2023-03-21T09:07:22.076Z,10.05
2023-03-21T09:09:58.137Z,9.45
2023-03-21T09:12:29.582Z,10.18
2023-03-21T09:14:56.140Z,8.00
2023-03-21T09:17:22.687Z,13.65
2023-03-21T09:19:50.730Z,5.32
2023-03-21T09:22:21.267Z,7.60
2023-03-21T09:24:48.694Z,8.40
2023-03-21T09:27:25.306Z,5.05
2023-03-21T09:29:52.275Z,9.00
2023-03-21T09:32:19.141Z,9.38
2023-03-21T09:34:45.931Z,9.13
2023-03-21T09:37:13.651Z,9.77
2023-03-21T09:39:41.169Z,9.77
2023-03-21T09:42:42.365Z,8.25
2023-03-21T09:45:39.953Z,9.18
2023-03-21T09:48:22.351Z,6.70
2023-03-21T09:50:49.103Z,7.00
2023-03-21T09:53:30.933Z,6.97
2023-03-21T09:55:57.559Z,11.70
2023-03-21T09:58:40.375Z,11.98
2023-03-21T10:01:22.249Z,6.90
2023-03-21T10:03:53.681Z,9.95
2023-03-21T10:06:30.370Z,8.60
2023-03-21T10:09:07.319Z,10.18
2023-03-21T10:11:50.650Z,8.13
2023-03-21T10:14:26.237Z,9.35
2023-03-21T10:16:57.964Z,10.82
2023-03-21T10:19:24.808Z,10.65
2023-03-21T10:22:00.750Z,6.70
2023-03-21T10:24:33.159Z,12.57
2023-03-21T10:27:01.666Z,6.85
2023-03-21T10:29:33.037Z,11.05
2023-03-21T10:32:00.760Z,9.48
2023-03-21T10:34:37.975Z,7.33
2023-03-21T10:37:06.427Z,9.65
2023-03-21T10:39:38.373Z,18.50
2023-03-21T10:42:04.968Z,8.25
2023-03-21T10:44:33.808Z,5.13
2023-03-21T10:47:07.483Z,6.30
2023-03-21T10:50:05.772Z,11.10
2023-03-21T10:52:28.616Z,6.30
2023-03-21T10:55:22.010Z,12.85
2023-03-21T10:57:53.063Z,5.45
2023-03-21T11:00:23.893Z,7.40
2023-03-21T11:02:53.113Z,6.13
2023-03-21T11:05:34.684Z,7.45
2023-03-21T11:08:13.860Z,7.68
2023-03-21T11:10:52.273Z,5.32
2023-03-21T11:13:24.953Z,11.00
2023-03-21T11:15:58.401Z,9.55
2023-03-21T11:18:27.129Z,7.65
2023-03-21T11:20:58.968Z,4.90
2023-03-21T11:23:28.839Z,7.45
2023-03-21T11:25:55.973Z,4.47
2023-03-21T11:28:25.394Z,6.47
2023-03-21T11:30:57.298Z,5.25
2023-03-21T11:33:27.884Z,8.05
2023-03-21T11:36:02.748Z,4.90
2023-03-21T11:38:33.315Z,8.73
2023-03-21T11:41:01.899Z,4.50
2023-03-21T11:43:31.970Z,5.25
2023-03-21T11:46:04.707Z,8.35
2023-03-21T11:48:36.750Z,4.70
2023-03-21T11:51:12.505Z,6.27
2023-03-21T11:53:56.637Z,5.10
2023-03-21T11:56:27.523Z,5.03
2023-03-21T11:59:19.158Z,5.60
2023-03-21T12:02:13.296Z,7.57
2023-03-21T12:04:57.004Z,8.53
2023-03-21T12:07:42.175Z,7.07
2023-03-21T12:10:26.245Z,8.57
2023-03-21T12:13:09.085Z,7.07
2023-03-21T12:15:47.749Z,10.80
2023-03-21T12:18:14.135Z,4.67
2023-03-21T12:20:50.321Z,9.40
2023-03-21T12:23:41.069Z,5.45
2023-03-21T12:26:29.930Z,8.20
2023-03-21T12:29:40.153Z,6.53
2023-03-21T12:32:09.606Z,9.73
2023-03-21T12:35:00.773Z,7.45
2023-03-21T12:37:57.792Z,6.65
2023-03-21T12:40:40.265Z,5.30
2023-03-21T12:43:21.423Z,8.38
2023-03-21T12:45:54.749Z,7.43
2023-03-21T12:48:30.636Z,5.95
2023-03-21T12:51:01.021Z,9.82
2023-03-21T12:53:34.484Z,9.57
2023-03-21T12:56:03.060Z,9.50
2023-03-21T12:58:33.976Z,5.97
2023-03-21T13:01:04.549Z,8.15
2023-03-21T13:03:40.619Z,8.52
2023-03-21T13:06:11.592Z,9.27
2023-03-21T13:08:52.757Z,7.80
2023-03-21T13:11:26.249Z,9.20
2023-03-21T13:14:12.393Z,8.50
2023-03-21T13:16:52.682Z,7.38
2023-03-21T13:19:38.864Z,14.25
2023-03-21T13:22:26.913Z,10.68
2023-03-21T13:24:59.493Z,10.60
2023-03-21T13:27:29.462Z,8.73
2023-03-21T13:30:14.432Z,7.60
2023-03-21T13:32:43.603Z,7.78
2023-03-21T13:35:27.711Z,13.82
2023-03-21T13:37:59.358Z,5.30
2023-03-21T13:40:34.895Z,6.80
2023-03-21T13:43:03.773Z,7.38
2023-03-21T13:45:46.196Z,5.20
2023-03-21T13:48:30.936Z,7.78
2023-03-21T13:51:02.156Z,5.43
2023-03-21T13:53:40.340Z,8.38
2023-03-21T13:56:15.969Z,6.63
2023-03-21T13:58:45.799Z,7.25
2023-03-21T14:01:30.717Z,9.15
2023-03-21T14:04:14.316Z,7.80
2023-03-21T14:06:57.704Z,7.32
2023-03-21T14:09:36.290Z,4.78
2023-03-21T14:12:07.814Z,7.32
2023-03-21T14:14:42.000Z,6.90
2023-03-21T14:17:34.920Z,8.37
2023-03-21T14:20:33.933Z,13.73
2023-03-21T14:23:00.904Z,8.02
2023-03-21T14:25:40.960Z,8.57
2023-03-21T14:28:20.799Z,7.15
2023-03-21T14:30:53.842Z,4.73
2023-03-21T14:33:31.765Z,9.70
2023-03-21T14:36:00.045Z,6.65
2023-03-21T14:38:32.976Z,5.47
2023-03-21T14:40:59.469Z,6.80
2023-03-21T14:43:26.748Z,6.53
2023-03-21T14:45:56.538Z,6.13
2023-03-21T14:48:35.196Z,6.70
2023-03-21T14:51:05.957Z,7.85
2023-03-21T14:53:36.913Z,8.07
2023-03-21T14:56:27.892Z,8.07
2023-03-21T14:58:54.899Z,5.25
2023-03-21T15:01:31.111Z,8.60
2023-03-21T15:04:00.544Z,6.82
2023-03-21T15:06:27.435Z,8.75
2023-03-21T15:09:05.032Z,6.67
2023-03-21T15:11:34.174Z,8.32
2023-03-21T15:14:06.582Z,6.45
2023-03-21T15:16:34.256Z,8.02
2023-03-21T15:19:02.062Z,8.52
2023-03-21T15:21:36.103Z,11.30
2023-03-21T15:24:27.610Z,7.63
2023-03-21T15:27:00.894Z,7.90
2023-03-21T15:29:28.024Z,7.97
2023-03-21T15:31:55.905Z,5.80
2023-03-21T15:34:30.664Z,8.93
2023-03-21T15:37:09.078Z,7.40
2023-03-21T15:39:38.314Z,6.43
2023-03-21T15:42:22.389Z,6.78
2023-03-21T15:44:53.096Z,6.18
2023-03-21T15:47:50.008Z,10.00
2023-03-21T15:50:41.569Z,10.02
2023-03-21T15:53:15.594Z,8.95
2023-03-21T15:55:49.888Z,8.55
2023-03-21T15:58:23.911Z,7.07
2023-03-21T16:00:55.911Z,6.87
2023-03-21T16:03:22.646Z,12.00
2023-03-21T16:06:21.686Z,4.40
2023-03-21T16:09:06.405Z,8.10
2023-03-21T16:11:49.665Z,13.48
2023-03-21T16:14:17.542Z,6.80
2023-03-21T16:16:45.816Z,10.18
2023-03-21T16:19:12.866Z,7.15
2023-03-21T16:21:39.522Z,6.28
2023-03-21T16:24:07.496Z,9.40
2023-03-21T16:26:43.455Z,10.50
2023-03-21T16:29:12.155Z,8.65
2023-03-21T16:31:38.747Z,10.10
2023-03-21T16:34:05.761Z,6.60
2023-03-21T16:36:36.972Z,7.97
2023-03-21T16:39:16.647Z,8.27
2023-03-21T16:41:52.194Z,5.93
2023-03-21T16:44:20.063Z,12.75
2023-03-21T16:46:47.369Z,6.50
2023-03-21T16:49:19.941Z,8.48
2023-03-21T16:51:47.074Z,9.93
2023-03-21T16:54:14.157Z,6.82
2023-03-21T16:56:54.032Z,8.10
2023-03-21T16:59:21.430Z,5.20
2023-03-21T17:01:49.185Z,10.35
2023-03-21T17:04:17.700Z,6.27
2023-03-21T17:06:50.450Z,5.90
2023-03-21T17:09:21.331Z,7.95
2023-03-21T17:11:48.126Z,3.63
2023-03-21T17:14:22.467Z,3.85
2023-03-21T17:16:49.778Z,6.55
2023-03-21T17:19:24.049Z,6.32
2023-03-21T17:21:51.907Z,5.45
2023-03-21T17:24:18.922Z,11.15
2023-03-21T17:26:47.183Z,5.03
2023-03-21T17:29:15.195Z,6.70
2023-03-21T17:31:42.931Z,6.22
2023-03-21T17:34:11.298Z,5.57
2023-03-21T17:36:41.548Z,6.93
2023-03-21T17:39:14.806Z,6.25
2023-03-21T17:41:41.444Z,9.68
2023-03-21T17:44:07.912Z,7.50
2023-03-21T17:46:39.276Z,7.15
2023-03-21T17:49:06.421Z,4.65
2023-03-21T17:51:33.214Z,5.28
2023-03-21T17:54:00.644Z,9.35
2023-03-21T17:56:32.665Z,8.80
2023-03-21T17:59:03.897Z,5.10
2023-03-21T18:01:32.036Z,6.50
2023-03-21T18:04:02.100Z,4.63
2023-03-21T18:06:28.644Z,6.65
2023-03-21T18:08:57.579Z,4.60
2023-03-21T18:11:26.515Z,7.18
2023-03-21T18:14:03.596Z,4.82
2023-03-21T18:16:36.650Z,4.53
2023-03-21T18:19:03.553Z,7.47
2023-03-21T18:21:32.908Z,7.53
2023-03-21T18:23:59.487Z,9.10
2023-03-21T18:26:26.020Z,6.57
2023-03-21T18:29:36.581Z,4.40
2023-03-21T18:31:38.855Z,7.97
2023-03-21T18:34:05.347Z,5.60
2023-03-21T18:36:32.092Z,4.90
2023-03-21T18:38:58.842Z,5.88
2023-03-21T18:41:25.943Z,10.00
2023-03-21T18:44:05.887Z,8.93
2023-03-21T18:46:46.979Z,5.82
2023-03-21T18:52:04.736Z,7.50
2023-03-21T18:54:31.588Z,4.87
2023-03-21T18:57:31.752Z,8.13
2023-03-21T18:59:44.879Z,4.72
2023-03-21T19:02:14.120Z,7.30
2023-03-21T19:04:41.209Z,7.78
2023-03-21T19:07:08.520Z,5.82
2023-03-21T19:09:58.193Z,6.20
2023-03-21T19:12:23.598Z,9.85
2023-03-21T19:14:50.602Z,9.35
2023-03-21T19:18:07.803Z,8.45
2023-03-21T19:20:05.578Z,7.20
2023-03-21T19:22:36.698Z,7.53
2023-03-21T19:25:05.630Z,8.80
2023-03-21T19:27:34.610Z,9.00
2023-03-21T19:30:13.837Z,7.25
2023-03-21T19:32:41.420Z,7.63
2023-03-21T19:35:08.755Z,7.05
2023-03-21T19:37:36.294Z,8.25
2023-03-21T19:40:05.343Z,6.13
2023-03-21T19:42:32.497Z,8.30
2023-03-21T19:44:59.191Z,7.38
2023-03-21T19:47:26.252Z,5.90
2023-03-21T19:52:40.728Z,9.55
2023-03-21T19:55:08.139Z,7.13
2023-03-21T19:57:35.451Z,7.80
2023-03-21T20:00:02.640Z,8.90
2023-03-21T20:02:37.148Z,9.68
2023-03-21T20:05:07.010Z,6.40
2023-03-21T20:07:34.001Z,6.15
2023-03-21T20:10:01.079Z,8.35
2023-03-21T20:12:28.733Z,8.73
2023-03-21T20:15:10.323Z,7.63
2023-03-21T20:17:43.274Z,9.25
2023-03-21T20:20:13.717Z,7.55
2023-03-21T20:25:28.336Z,9.20
2023-03-21T20:28:12.910Z,21.27
2023-03-21T20:30:50.404Z,8.60
2023-03-21T20:33:17.698Z,9.20
2023-03-21T20:36:35.651Z,11.45
2023-03-21T20:38:33.660Z,10.45
2023-03-21T20:41:01.770Z,13.40
2023-03-21T20:44:18.282Z,7.07
2023-03-21T20:46:16.575Z,9.35
2023-03-21T20:48:43.259Z,9.23
2023-03-21T20:53:58.818Z,7.90
2023-03-21T20:56:25.805Z,9.85
2023-03-21T20:59:14.642Z,6.78
2023-03-21T21:01:45.582Z,5.65
2023-03-21T21:04:19.451Z,6.03
2023-03-21T21:06:50.817Z,5.40
2023-03-21T21:09:17.844Z,7.05
2023-03-21T21:14:31.155Z,10.43
2023-03-21T21:16:58.936Z,6.70
2023-03-21T21:19:28.126Z,12.15
2023-03-21T21:21:54.641Z,9.68
2023-03-21T21:24:21.612Z,5.18
2023-03-21T21:26:48.641Z,6.13
2023-03-21T21:29:17.199Z,6.15
2023-03-21T21:31:52.075Z,11.00
2023-03-21T21:34:19.830Z,8.77
2023-03-21T21:36:46.603Z,5.80
2023-03-21T21:39:16.945Z,6.10
2023-03-21T21:41:43.527Z,9.65
2023-03-21T21:44:10.946Z,5.75
2023-03-21T21:46:38.111Z,7.78
2023-03-21T21:49:05.363Z,8.27
2023-03-21T21:51:34.034Z,9.93
2023-03-21T21:54:03.826Z,9.75
2023-03-21T21:56:32.497Z,8.55
2023-03-21T21:59:03.174Z,8.27
2023-03-21T22:01:31.449Z,11.00
2023-03-21T22:04:06.010Z,7.97
2023-03-21T22:06:35.108Z,11.57
2023-03-21T22:09:04.770Z,5.65
2023-03-21T22:11:31.829Z,8.10
2023-03-21T22:13:59.896Z,9.70
2023-03-21T22:16:26.618Z,8.77
2023-03-21T22:18:53.194Z,7.90
2023-03-21T22:21:19.993Z,11.10
2023-03-21T22:23:46.684Z,10.40
2023-03-21T22:26:13.349Z,7.70
2023-03-21T22:28:42.164Z,7.20
2023-03-21T22:31:11.694Z,7.85
2023-03-21T22:34:05.508Z,6.40
2023-03-21T22:36:40.550Z,9.35
2023-03-21T22:39:18.756Z,6.47
2023-03-21T22:42:24.056Z,3.67
2023-03-21T22:45:05.664Z,3.75
2023-03-21T22:48:03.996Z,4.88
2023-03-21T22:50:46.688Z,6.20
2023-03-21T22:53:57.431Z,7.05
2023-03-21T23:03:36.332Z,8.55
2023-03-21T23:06:15.941Z,7.05
2023-03-21T23:09:07.986Z,9.32
2023-03-21T23:12:01.811Z,5.00
2023-03-21T23:14:50.506Z,12.02
2023-03-21T23:17:43.289Z,3.72
2023-03-21T23:20:56.906Z,4.97
2023-03-21T23:23:55.691Z,5.65
2023-03-21T23:26:33.123Z,8.33
2023-03-21T23:29:09.873Z,8.00
2023-03-21T23:31:43.817Z,4.07
2023-03-21T23:34:27.058Z,3.75
2023-03-21T23:40:04.648Z,3.47
2023-03-21T23:42:48.169Z,3.55
2023-03-21T23:45:37.532Z,4.45
2023-03-21T23:48:29.356Z,14.18
2023-03-21T23:51:17.407Z,5.82
2023-03-21T23:54:08.509Z,1.73
2023-03-21T23:56:52.747Z,6.22
2023-03-21T23:59:38.387Z,6.30
